Time;durP1;ratioP1;P1;durP2;ratioP2;P2;SDS_P1;SDS_P2;PMS_P1;PMS_P2;Temp;Humidity;BMP_temperature;BMP_pressure;BME280_temperature;BME280_humidity;BME280_pressure;Samples;Min_cycle;Max_cycle;Signal;HPM_P1;HPM_P2
2022/11/16 00:01:11;;;;;;;3.90;2.40;;;10.40;83.20;;;;;;5055606;28;20037;-77
2022/11/16 00:03:36;;;;;;;3.65;2.17;;;10.40;83.30;;;;;;5055327;28;20104;-77
2022/11/16 00:06:04;;;;;;;3.85;2.00;;;10.40;83.30;;;;;;5055335;28;20103;-77
2022/11/16 00:08:36;;;;;;;3.85;2.20;;;10.40;83.40;;;;;;5055229;28;20025;-77
2022/11/16 00:11:09;;;;;;;5.47;1.85;;;10.40;83.40;;;;;;5055375;28;20104;-77
2022/11/16 00:13:35;;;;;;;2.38;1.90;;;10.40;83.20;;;;;;5055361;28;20021;-78
2022/11/16 00:16:01;;;;;;;4.72;1.30;;;10.30;83.40;;;;;;5055294;28;20025;-77
2022/11/16 00:18:27;;;;;;;4.05;2.35;;;10.30;83.80;;;;;;5055049;28;20091;-77
2022/11/16 00:20:53;;;;;;;2.67;1.90;;;10.30;84.20;;;;;;5054713;28;20071;-77
2022/11/16 00:23:19;;;;;;;5.93;2.17;;;10.20;84.50;;;;;;5054916;28;20025;-77
2022/11/16 00:25:44;;;;;;;4.65;2.20;;;10.20;84.40;;;;;;5053847;28;20025;-77
2022/11/16 00:28:10;;;;;;;3.88;1.92;;;10.20;84.50;;;;;;5055110;28;20025;-77
2022/11/16 00:30:36;;;;;;;3.08;2.00;;;10.20;84.80;;;;;;5055109;28;20473;-77
2022/11/16 00:33:03;;;;;;;4.57;2.05;;;10.10;84.90;;;;;;5054755;28;20029;-77
2022/11/16 00:35:29;;;;;;;3.35;2.13;;;10.10;85.10;;;;;;5054678;28;20025;-74
2022/11/16 00:37:55;;;;;;;3.80;1.58;;;10.10;85.30;;;;;;5054720;28;20028;-75
2022/11/16 00:40:20;;;;;;;3.10;1.98;;;10.00;85.40;;;;;;5054515;28;20040;-75
2022/11/16 00:42:46;;;;;;;2.50;1.80;;;10.00;85.80;;;;;;5037065;28;20024;-75
2022/11/16 00:45:11;;;;;;;3.20;1.80;;;10.10;86.10;;;;;;5054568;28;20021;-75
2022/11/16 00:47:37;;;;;;;3.60;1.95;;;10.10;86.50;;;;;;5054541;28;20025;-75
2022/11/16 00:50:03;;;;;;;3.97;1.52;;;10.10;86.40;;;;;;5054506;28;20020;-76
2022/11/16 00:52:28;;;;;;;2.05;1.75;;;10.20;86.40;;;;;;5054443;28;20047;-76
2022/11/16 00:54:54;;;;;;;3.00;1.90;;;10.20;86.40;;;;;;5036534;28;20048;-76
2022/11/16 00:57:20;;;;;;;4.15;2.10;;;10.20;86.20;;;;;;5054275;28;20548;-75
2022/11/16 00:59:45;;;;;;;2.80;1.60;;;10.30;86.50;;;;;;5054288;28;20489;-76
2022/11/16 01:02:11;;;;;;;2.97;1.75;;;10.30;86.30;;;;;;5036374;28;20393;-76
2022/11/16 01:04:36;;;;;;;2.33;1.92;;;10.30;86.40;;;;;;5053884;28;20071;-76
2022/11/16 01:07:02;;;;;;;2.97;1.55;;;10.30;86.40;;;;;;5054002;28;20525;-76
2022/11/16 01:09:27;;;;;;;2.10;1.40;;;10.30;86.70;;;;;;5054074;28;20427;-76
2022/11/16 01:12:08;;;;;;;3.47;1.83;;;10.30;87.20;;;;;;5053963;28;20110;-77
2022/11/16 01:14:38;;;;;;;2.75;1.40;;;10.30;87.10;;;;;;5054123;28;20045;-77
2022/11/16 01:17:04;;;;;;;1.88;1.30;;;10.40;87.10;;;;;;5053962;28;20029;-77
2022/11/16 01:19:29;;;;;;;3.35;1.70;;;10.30;87.20;;;;;;5053771;28;20029;-76
2022/11/16 01:21:55;;;;;;;1.63;1.52;;;10.30;88.20;;;;;;5053908;28;20044;-76
2022/11/16 01:24:21;;;;;;;5.32;2.17;;;10.30;87.50;;;;;;5036054;28;20021;-76
2022/11/16 01:26:46;;;;;;;2.45;1.67;;;10.30;87.50;;;;;;5053841;28;20025;-77
2022/11/16 01:29:12;;;;;;;2.92;1.50;;;10.30;87.60;;;;;;5053692;28;20067;-76
2022/11/16 01:31:38;;;;;;;2.10;1.30;;;10.30;87.70;;;;;;5053736;28;20104;-76
2022/11/16 01:34:03;;;;;;;1.92;0.98;;;10.30;87.90;;;;;;5035839;28;20082;-76
2022/11/16 01:36:29;;;;;;;1.25;0.88;;;10.30;87.80;;;;;;5053400;28;20021;-75
2022/11/16 01:38:55;;;;;;;1.10;1.00;;;10.40;87.40;;;;;;5053558;28;20021;-76
2022/11/16 01:41:23;;;;;;;1.98;0.90;;;10.40;87.10;;;;;;5053450;28;20378;-76
2022/11/16 01:43:54;;;;;;;1.70;1.10;;;10.50;87.10;;;;;;5053539;28;20045;-76
2022/11/16 01:46:20;;;;;;;2.83;1.40;;;10.50;87.20;;;;;;5053319;28;20028;-76
2022/11/16 01:48:48;;;;;;;1.70;1.15;;;10.50;87.40;;;;;;5053475;28;20017;-76
2022/11/16 01:51:14;;;;;;;2.95;1.35;;;10.40;87.40;;;;;;5053376;28;20059;-76
2022/11/16 01:53:40;;;;;;;1.48;1.10;;;10.50;87.50;;;;;;5053301;28;20040;-76
2022/11/16 01:56:07;;;;;;;3.80;1.20;;;10.40;87.40;;;;;;5053134;28;20033;-76
2022/11/16 01:58:33;;;;;;;2.15;1.50;;;10.40;87.50;;;;;;5053260;28;20044;-76
2022/11/16 02:00:59;;;;;;;1.85;1.20;;;10.50;88.00;;;;;;5053195;28;20103;-75
2022/11/16 02:03:25;;;;;;;3.58;1.73;;;10.50;87.70;;;;;;5053182;28;20532;-76
2022/11/16 02:06:10;;;;;;;1.40;1.30;;;10.50;87.60;;;;;;5053097;28;20021;-77
2022/11/16 02:12:09;;;;;;;7.13;1.90;;;10.50;87.20;;;;;;5053141;28;20033;-77
2022/11/16 02:14:55;;;;;;;4.85;1.73;;;10.50;87.40;;;;;;5053062;28;20488;-77
2022/11/16 02:18:01;;;;;;;2.33;1.33;;;10.50;87.40;;;;;;5052142;28;20037;-77
2022/11/16 02:20:36;;;;;;;3.03;1.10;;;10.50;87.70;;;;;;5052723;28;20041;-77
2022/11/16 02:23:24;;;;;;;4.60;1.42;;;10.50;87.80;;;;;;5052816;28;20016;-77
2022/11/16 02:25:59;;;;;;;2.05;1.00;;;10.50;88.00;;;;;;5052087;28;20029;-78
2022/11/16 02:28:31;;;;;;;;;;;10.50;88.00;;;;;;5053193;28;20064;-75
2022/11/16 02:31:00;;;;;;;0.68;0.40;;;10.50;88.30;;;;;;5052642;28;19916;-77
2022/11/16 02:33:40;;;;;;;0.57;0.30;;;10.60;86.30;;;;;;5052796;28;20059;-77
2022/11/16 02:36:09;;;;;;;0.47;0.47;;;10.80;85.30;;;;;;5052871;28;20013;-77
2022/11/16 02:38:38;;;;;;;1.15;0.40;;;11.00;84.00;;;;;;5052812;28;20021;-76
2022/11/16 02:41:20;;;;;;;1.25;0.32;;;11.10;84.10;;;;;;5052720;28;20102;-77
2022/11/16 02:43:53;;;;;;;1.20;0.30;;;11.20;82.80;;;;;;5052694;28;20017;-75
2022/11/16 02:46:25;;;;;;;0.40;0.30;;;11.20;82.90;;;;;;5052791;28;20386;-76
2022/11/16 02:48:54;;;;;;;1.08;0.30;;;11.20;82.40;;;;;;5054164;28;20508;-77
2022/11/16 02:51:21;;;;;;;0.15;0.15;;;11.20;82.60;;;;;;5056805;28;20048;-77
2022/11/16 02:54:18;;;;;;;0.57;0.40;;;11.30;82.30;;;;;;5056721;28;20463;-76
2022/11/16 02:57:01;;;;;;;0.30;0.20;;;11.30;81.00;;;;;;5038709;28;20431;-77
2022/11/16 02:59:40;;;;;;;0.20;0.20;;;11.30;81.40;;;;;;5056509;28;20032;-76
2022/11/16 03:02:34;;;;;;;0.20;0.20;;;11.30;81.40;;;;;;5038729;28;20060;-76
2022/11/16 03:05:30;;;;;;;0.28;0.28;;;11.30;81.70;;;;;;5056788;28;20504;-76
2022/11/16 03:08:08;;;;;;;;;;;11.30;81.20;;;;;;5056940;28;20021;-75
2022/11/16 03:13:25;;;;;;;1.10;0.30;;;11.30;82.40;;;;;;5056736;28;20094;-75
2022/11/16 03:15:53;;;;;;;0.40;0.30;;;11.20;82.20;;;;;;5056307;28;20477;-76
2022/11/16 03:18:21;;;;;;;0.50;0.25;;;11.20;82.10;;;;;;5056241;28;20448;-76
2022/11/16 03:20:51;;;;;;;0.30;0.30;;;11.20;82.60;;;;;;5056246;28;20079;-78
2022/11/16 03:23:17;;;;;;;0.75;0.40;;;11.10;83.60;;;;;;5055923;28;20384;-77
2022/11/16 03:25:51;;;;;;;0.77;0.40;;;11.10;83.80;;;;;;5055857;28;20105;-77
2022/11/16 03:28:49;;;;;;;1.35;0.50;;;11.10;84.20;;;;;;5055981;28;20021;-77
2022/11/16 03:31:30;;;;;;;0.88;0.30;;;11.00;84.20;;;;;;5034614;28;20029;-77
2022/11/16 03:33:59;;;;;;;0.20;0.20;;;11.00;83.40;;;;;;5056078;28;20033;-77
2022/11/16 03:36:30;;;;;;;0.65;0.40;;;11.00;82.40;;;;;;5054460;28;20024;-76
2022/11/16 03:39:01;;;;;;;0.57;0.40;;;11.00;81.10;;;;;;5055924;28;20029;-76
2022/11/16 03:41:27;;;;;;;0.90;0.10;;;11.00;80.60;;;;;;5038829;28;20453;-77
2022/11/16 03:43:55;;;;;;;0.30;0.30;;;11.00;80.80;;;;;;5035669;28;20371;-76
2022/11/16 03:46:21;;;;;;;0.30;0.20;;;11.10;80.40;;;;;;5035815;28;20064;-76
2022/11/16 03:48:46;;;;;;;0.50;0.30;;;11.10;80.30;;;;;;5018123;28;20057;-77
2022/11/16 03:51:12;;;;;;;0.88;0.45;;;11.10;80.80;;;;;;5035830;28;20021;-77
2022/11/16 03:53:38;;;;;;;0.40;0.40;;;11.10;80.40;;;;;;5035647;28;20033;-76
2022/11/16 03:56:04;;;;;;;1.10;1.00;;;11.10;80.60;;;;;;5035701;28;20072;-76
2022/11/16 03:58:30;;;;;;;0.38;0.38;;;11.10;81.00;;;;;;5035658;28;20071;-76
2022/11/16 04:00:55;;;;;;;0.60;0.50;;;11.10;80.60;;;;;;5035434;28;20071;-77
2022/11/16 04:03:21;;;;;;;0.65;0.47;;;11.10;80.40;;;;;;5035598;28;20024;-77
2022/11/16 04:25:24;;;;;;;2.30;1.10;;;11.00;81.20;;;;;;5035477;28;20037;-76
2022/11/16 04:38:51;;;;;;;2.40;1.30;;;10.80;82.10;;;;;;5034892;28;20029;-78
2022/11/16 04:44:00;;;;;;;1.30;1.20;;;10.80;82.30;;;;;;5035008;28;20036;-77
2022/11/16 04:49:10;;;;;;;1.10;1.00;;;10.80;81.60;;;;;;5034751;28;20124;-76
2022/11/16 04:51:35;;;;;;;1.42;0.98;;;10.80;82.00;;;;;;5034345;28;20036;-75
2022/11/16 04:54:01;;;;;;;1.33;1.00;;;10.80;81.10;;;;;;5034367;28;20083;-77
2022/11/16 04:56:26;;;;;;;0.77;0.70;;;10.80;80.10;;;;;;5034356;28;20053;-77
2022/11/16 04:58:53;;;;;;;1.20;0.80;;;10.80;79.60;;;;;;5034635;28;20029;-77
2022/11/16 05:02:06;;;;;;;1.02;0.68;;;10.80;80.00;;;;;;5034478;28;20091;-77
2022/11/16 05:04:04;;;;;;;1.13;0.80;;;10.90;79.90;;;;;;5034153;28;20172;-76
2022/11/16 05:06:30;;;;;;;2.70;1.75;;;10.90;80.50;;;;;;5034456;28;20506;-77
2022/11/16 05:08:55;;;;;;;1.58;0.77;;;10.90;80.10;;;;;;5034267;28;20021;-77
2022/11/16 05:11:21;;;;;;;0.60;0.50;;;10.80;79.70;;;;;;5033741;28;20100;-77
2022/11/16 05:13:46;;;;;;;0.63;0.50;;;10.90;79.10;;;;;;5034311;28;20057;-77
2022/11/16 05:16:12;;;;;;;2.50;0.60;;;10.90;79.40;;;;;;5016408;28;20026;-77
2022/11/16 05:18:38;;;;;;;3.38;1.50;;;10.90;78.70;;;;;;5033937;28;20034;-77
2022/11/16 05:21:03;;;;;;;1.02;0.73;;;10.90;79.10;;;;;;5016018;28;20045;-76
2022/11/16 05:26:13;;;;;;;0.73;0.50;;;10.90;79.00;;;;;;5034273;28;20033;-77
2022/11/16 05:28:38;;;;;;;0.88;0.88;;;10.80;79.00;;;;;;5033974;28;20378;-77
2022/11/16 05:31:04;;;;;;;1.23;0.82;;;10.90;79.30;;;;;;5033793;28;20449;-77
2022/11/16 05:33:29;;;;;;;1.58;0.85;;;10.90;79.60;;;;;;5033990;28;20032;-76
2022/11/16 05:35:55;;;;;;;1.85;0.95;;;10.80;79.80;;;;;;5033917;28;20030;-76
2022/11/16 05:38:21;;;;;;;2.33;0.70;;;10.80;80.10;;;;;;5033881;28;20024;-77
2022/11/16 05:40:46;;;;;;;1.27;0.75;;;10.70;80.50;;;;;;5033676;28;20068;-77
2022/11/16 05:43:12;;;;;;;1.08;0.70;;;10.70;80.40;;;;;;5033740;28;20067;-76
2022/11/16 05:45:37;;;;;;;1.52;1.00;;;10.70;80.60;;;;;;5033158;28;20074;-77
2022/11/16 05:48:03;;;;;;;1.58;1.08;;;10.70;80.70;;;;;;5033525;28;20025;-77
2022/11/16 05:50:28;;;;;;;1.60;0.90;;;10.70;80.80;;;;;;5015863;28;20485;-77
2022/11/16 05:52:54;;;;;;;1.88;0.98;;;10.70;81.00;;;;;;5033636;28;20029;-78
2022/11/16 05:55:20;;;;;;;1.00;0.93;;;10.70;80.80;;;;;;5015723;28;20032;-77
2022/11/16 05:57:45;;;;;;;1.27;0.90;;;10.60;81.00;;;;;;5033026;28;20042;-76
2022/11/16 06:00:11;;;;;;;1.70;0.88;;;10.60;80.90;;;;;;5015521;28;20044;-77
2022/11/16 06:02:37;;;;;;;1.95;0.70;;;10.60;81.70;;;;;;5033051;28;20025;-77
2022/11/16 06:05:03;;;;;;;0.82;0.70;;;10.50;80.80;;;;;;5033005;28;20044;-77
2022/11/16 06:07:28;;;;;;;0.80;0.63;;;10.60;80.80;;;;;;5032953;28;20124;-76
2022/11/16 06:09:54;;;;;;;2.13;1.00;;;10.50;80.30;;;;;;5032895;28;20017;-75
2022/11/16 06:12:19;;;;;;;0.88;0.70;;;10.50;80.00;;;;;;5015415;28;20378;-75
2022/11/16 06:14:45;;;;;;;1.58;0.68;;;10.50;79.50;;;;;;5032887;28;20540;-75
2022/11/16 06:17:13;;;;;;;1.85;1.10;;;10.50;79.70;;;;;;5032957;28;20025;-76
2022/11/16 06:19:39;;;;;;;0.82;0.70;;;10.50;80.10;;;;;;5032871;28;20022;-75
2022/11/16 06:22:05;;;;;;;1.23;0.93;;;10.50;80.20;;;;;;5032940;28;20037;-75
2022/11/16 06:24:31;;;;;;;1.45;1.17;;;10.50;80.50;;;;;;5031894;28;20367;-77
2022/11/16 06:26:57;;;;;;;1.45;1.08;;;10.50;80.70;;;;;;5048420;28;20120;-76
2022/11/16 06:29:22;;;;;;;2.85;1.10;;;10.50;80.80;;;;;;5034340;28;20036;-77
2022/11/16 06:31:48;;;;;;;1.10;0.50;;;10.40;80.50;;;;;;5052057;28;20048;-76
2022/11/16 06:34:13;;;;;;;1.42;0.73;;;10.40;80.40;;;;;;5051639;28;20021;-76
2022/11/16 06:36:39;;;;;;;1.15;0.60;;;10.40;80.60;;;;;;5052145;28;20104;-77
2022/11/16 06:39:04;;;;;;;0.77;0.60;;;10.30;80.20;;;;;;5052240;28;20143;-77
2022/11/16 06:41:31;;;;;;;1.75;0.70;;;10.30;80.00;;;;;;5052033;28;20036;-75
2022/11/16 06:43:57;;;;;;;1.40;0.90;;;10.30;79.40;;;;;;5052384;28;20021;-76
2022/11/16 06:46:23;;;;;;;3.70;1.15;;;10.30;79.70;;;;;;5052219;28;20337;-75
2022/11/16 06:48:49;;;;;;;1.27;0.82;;;10.30;79.10;;;;;;5052475;28;20047;-78
2022/11/16 06:51:14;;;;;;;3.75;1.00;;;10.40;77.80;;;;;;5052476;28;20424;-77
2022/11/16 06:53:40;;;;;;;0.77;0.60;;;10.40;78.00;;;;;;5052207;28;20501;-75
2022/11/16 06:56:06;;;;;;;4.50;0.73;;;10.30;77.80;;;;;;5051801;28;20022;-75
2022/11/16 06:58:33;;;;;;;5.15;0.57;;;10.30;77.40;;;;;;5051930;28;20041;-77
2022/11/16 07:01:06;;;;;;;3.53;0.90;;;10.30;77.60;;;;;;5052533;28;20440;-77
2022/11/16 07:03:31;;;;;;;2.63;0.73;;;10.30;77.60;;;;;;5052133;28;20049;-76
2022/11/16 07:05:57;;;;;;;4.90;1.10;;;10.40;77.30;;;;;;5052312;28;20064;-78
2022/11/16 07:08:22;;;;;;;3.03;0.80;;;10.40;77.30;;;;;;5052067;28;20029;-76
2022/11/16 07:10:48;;;;;;;3.85;0.90;;;10.40;77.30;;;;;;5052372;28;20029;-76
2022/11/16 07:13:13;;;;;;;3.55;0.70;;;10.40;77.30;;;;;;5051967;28;20101;-76
2022/11/16 07:15:39;;;;;;;1.33;0.70;;;10.40;77.60;;;;;;5052112;28;20477;-76
2022/11/16 07:18:06;;;;;;;4.65;1.38;;;10.40;77.50;;;;;;5051949;28;20115;-76
2022/11/16 07:20:32;;;;;;;5.22;1.10;;;10.40;77.50;;;;;;5051819;28;20124;-76
2022/11/16 07:23:01;;;;;;;2.05;0.70;;;10.40;77.30;;;;;;5051805;28;20025;-77
2022/11/16 07:25:28;;;;;;;4.47;1.48;;;10.40;77.50;;;;;;5051904;28;20033;-77
2022/11/16 07:27:53;;;;;;;2.47;0.90;;;10.40;77.60;;;;;;5051796;28;20017;-77
2022/11/16 07:30:19;;;;;;;3.17;0.80;;;10.50;77.00;;;;;;5052189;28;20063;-76
2022/11/16 07:32:44;;;;;;;4.72;0.80;;;10.50;77.00;;;;;;5051838;28;20028;-77
2022/11/16 07:35:10;;;;;;;2.92;0.70;;;10.60;76.50;;;;;;5035430;28;20120;-77
2022/11/16 07:37:35;;;;;;;2.28;0.60;;;10.60;76.60;;;;;;5055406;28;20458;-75
2022/11/16 07:40:01;;;;;;;6.57;0.90;;;10.60;76.00;;;;;;5055307;28;20108;-76
2022/11/16 07:42:27;;;;;;;2.83;0.50;;;10.70;75.60;;;;;;5037280;28;20037;-76
2022/11/16 07:44:52;;;;;;;3.78;0.77;;;10.60;75.50;;;;;;5055409;28;20549;-80
2022/11/16 07:47:18;;;;;;;3.17;0.93;;;10.70;75.40;;;;;;5055249;28;20033;-76
2022/11/16 07:49:43;;;;;;;3.65;1.00;;;10.70;75.60;;;;;;5055205;28;20066;-74
2022/11/16 07:52:09;;;;;;;5.40;1.25;;;10.80;75.00;;;;;;5037381;28;20029;-79
2022/11/16 07:54:35;;;;;;;3.05;1.00;;;10.90;74.60;;;;;;5054767;28;20021;-75
2022/11/16 07:57:01;;;;;;;4.97;1.27;;;10.80;74.70;;;;;;5054320;28;20052;-74
2022/11/16 07:59:27;;;;;;;4.50;0.73;;;10.80;74.50;;;;;;5054761;28;20025;-73
2022/11/16 08:01:54;;;;;;;4.95;1.90;;;10.70;75.30;;;;;;5055094;28;20044;-74
2022/11/16 08:04:20;;;;;;;6.20;2.03;;;10.80;75.50;;;;;;5054685;28;20021;-75
2022/11/16 08:06:45;;;;;;;4.88;1.48;;;10.70;75.90;;;;;;5054618;28;20039;-81
2022/11/16 08:09:12;;;;;;;5.50;1.25;;;10.70;78.10;;;;;;5054594;28;20462;-80
2022/11/16 08:11:38;;;;;;;5.57;1.33;;;11.00;79.70;;;;;;5036859;28;20080;-85
2022/11/16 08:14:04;;;;;;;5.35;1.00;;;11.20;76.60;;;;;;5037491;28;20462;-83
2022/11/16 08:16:32;;;;;;;3.85;0.90;;;11.50;74.80;;;;;;5036903;28;20342;-84
2022/11/16 08:18:58;;;;;;;4.18;0.90;;;11.70;73.10;;;;;;5037055;28;20112;-79
2022/11/16 08:21:24;;;;;;;4.55;1.25;;;11.90;71.20;;;;;;5054652;28;20068;-80
2022/11/16 08:23:49;;;;;;;2.95;1.10;;;11.90;71.90;;;;;;5034088;28;20052;-80
2022/11/16 08:26:17;;;;;;;2.55;1.08;;;12.10;72.30;;;;;;5015801;28;20057;-80
2022/11/16 08:28:44;;;;;;;4.78;1.27;;;12.10;72.30;;;;;;5033758;28;20025;-82
2022/11/16 08:31:15;;;;;;;4.63;0.82;;;12.20;72.80;;;;;;5033643;28;20061;-81
2022/11/16 08:33:41;;;;;;;3.08;0.80;;;12.30;70.30;;;;;;5034299;28;20052;-80
2022/11/16 08:36:11;;;;;;;1.98;0.75;;;12.40;69.30;;;;;;5016669;28;20055;-80
2022/11/16 08:38:37;;;;;;;3.63;1.00;;;12.60;68.10;;;;;;5016597;28;20055;-81
2022/11/16 08:41:03;;;;;;;4.85;2.55;;;12.80;68.20;;;;;;5034302;28;20120;-82
2022/11/16 08:43:29;;;;;;;4.90;1.80;;;13.20;67.30;;;;;;5016441;28;20024;-80
2022/11/16 08:45:56;;;;;;;9.15;3.33;;;13.50;67.10;;;;;;5033242;28;20033;-81
2022/11/16 08:48:22;;;;;;;9.13;2.85;;;13.80;65.20;;;;;;5034120;28;20021;-81
2022/11/16 08:50:47;;;;;;;4.68;1.58;;;14.10;64.70;;;;;;5034355;28;20036;-75
2022/11/16 08:53:14;;;;;;;6.05;2.22;;;14.30;62.20;;;;;;5035458;28;20024;-75
2022/11/16 08:55:41;;;;;;;4.50;1.58;;;14.20;60.90;;;;;;5048290;28;20456;-75
2022/11/16 08:58:07;;;;;;;5.10;1.40;;;14.00;61.20;;;;;;5048368;28;20520;-75
2022/11/16 09:00:33;;;;;;;2.55;0.73;;;14.00;61.20;;;;;;5048566;28;20495;-74
2022/11/16 09:02:58;;;;;;;5.63;1.13;;;13.70;60.90;;;;;;5053320;28;20029;-75
2022/11/16 09:05:24;;;;;;;5.40;1.15;;;13.60;62.00;;;;;;5035717;28;20025;-74
2022/11/16 09:07:49;;;;;;;3.10;0.90;;;13.50;62.90;;;;;;5053575;28;20406;-78
2022/11/16 09:10:17;;;;;;;6.03;1.05;;;13.30;63.00;;;;;;5053982;28;20035;-78
2022/11/16 09:12:43;;;;;;;4.07;1.77;;;13.20;63.20;;;;;;5053191;28;20033;-75
2022/11/16 09:15:09;;;;;;;3.72;0.60;;;13.20;62.40;;;;;;5053148;28;20035;-76
2022/11/16 09:17:34;;;;;;;3.30;0.75;;;12.90;64.00;;;;;;5035221;28;20016;-76
2022/11/16 09:20:00;;;;;;;3.88;0.95;;;12.90;63.50;;;;;;5053247;28;20028;-75
2022/11/16 09:22:25;;;;;;;3.05;1.05;;;12.90;63.40;;;;;;5035341;28;20025;-74
2022/11/16 09:24:51;;;;;;;3.22;0.73;;;12.90;63.70;;;;;;5053197;28;20368;-74
2022/11/16 09:27:16;;;;;;;5.53;1.20;;;12.70;62.70;;;;;;5053425;28;20036;-75
2022/11/16 09:29:42;;;;;;;4.18;0.70;;;12.50;62.00;;;;;;5046083;28;20096;-74
2022/11/16 09:32:08;;;;;;;3.70;0.65;;;12.20;63.10;;;;;;5041611;28;20041;-74
2022/11/16 09:34:34;;;;;;;3.03;0.70;;;12.10;64.60;;;;;;5052501;28;20100;-75
2022/11/16 09:37:00;;;;;;;5.20;0.90;;;12.00;63.50;;;;;;5053324;28;20021;-74
2022/11/16 09:39:31;;;;;;;1.30;0.50;;;12.00;64.30;;;;;;5053049;28;20027;-74
2022/11/16 09:42:24;;;;;;;2.53;0.50;;;12.10;63.90;;;;;;5053161;28;20036;-74
2022/11/16 09:45:17;;;;;;;3.55;0.70;;;12.40;63.30;;;;;;5052881;28;20539;-74
2022/11/16 09:47:55;;;;;;;5.55;0.93;;;12.50;62.00;;;;;;5053026;28;20025;-73
2022/11/16 09:50:38;;;;;;;3.95;0.73;;;12.70;61.60;;;;;;5052632;28;20025;-73
2022/11/16 09:53:38;;;;;;;5.72;0.68;;;12.70;61.20;;;;;;5053175;28;20429;-73
2022/11/16 09:56:06;;;;;;;6.00;1.17;;;12.80;60.80;;;;;;5052660;28;20096;-74
2022/11/16 09:58:46;;;;;;;8.27;1.15;;;12.80;60.70;;;;;;5052686;28;20049;-74
2022/11/16 10:01:28;;;;;;;3.17;1.20;;;13.00;60.80;;;;;;5052700;28;20029;-73
2022/11/16 10:04:10;;;;;;;1.95;0.60;;;13.20;60.60;;;;;;5052571;28;20029;-76
2022/11/16 10:06:53;;;;;;;4.47;0.70;;;13.30;58.30;;;;;;5053132;28;20108;-75
2022/11/16 10:09:20;;;;;;;4.22;0.60;;;13.00;57.40;;;;;;5053031;28;20028;-76
2022/11/16 10:12:18;;;;;;;5.97;1.02;;;13.00;58.30;;;;;;5052393;28;20067;-77
2022/11/16 10:15:25;;;;;;;4.30;0.50;;;13.10;56.50;;;;;;5008390;28;20397;-76
2022/11/16 10:17:59;;;;;;;;;;;12.90;58.00;;;;;;5053168;28;20025;-77
2022/11/16 10:20:34;;;;;;;6.03;0.70;;;13.00;57.30;;;;;;5052469;28;19959;-76
2022/11/16 10:23:18;;;;;;;6.05;1.20;;;13.20;56.80;;;;;;5052911;28;20060;-78
2022/11/16 10:25:48;;;;;;;4.35;0.93;;;13.40;56.50;;;;;;5052705;28;20025;-77
2022/11/16 10:28:31;;;;;;;7.15;0.80;;;13.60;54.50;;;;;;5052579;28;20063;-77
2022/11/16 10:31:22;;;;;;;3.97;0.70;;;13.80;55.00;;;;;;5034740;28;20048;-79
2022/11/16 10:33:52;;;;;;;3.75;0.80;;;13.80;54.90;;;;;;5052642;28;20021;-77
2022/11/16 10:36:20;;;;;;;3.92;0.80;;;14.10;53.10;;;;;;5052440;28;20029;-78
2022/11/16 10:38:46;;;;;;;3.38;0.90;;;14.20;51.70;;;;;;5052657;28;20017;-76
2022/11/16 10:41:12;;;;;;;3.25;0.52;;;14.20;52.30;;;;;;5052441;28;20068;-76
2022/11/16 10:43:39;;;;;;;5.68;1.02;;;14.30;52.00;;;;;;5046799;28;20057;-80
2022/11/16 10:46:15;;;;;;;6.57;0.80;;;14.50;52.90;;;;;;5051755;28;20029;-77
2022/11/16 10:49:20;;;;;;;4.22;1.13;;;14.70;51.30;;;;;;5052258;28;20033;-77
2022/11/16 10:51:45;;;;;;;4.50;0.85;;;14.60;49.90;;;;;;5052384;28;20554;-77
2022/11/16 10:54:15;;;;;;;5.18;0.70;;;14.90;49.50;;;;;;5052295;28;20033;-77
2022/11/16 10:56:48;;;;;;;7.65;0.85;;;15.00;48.10;;;;;;5033922;28;20063;-77
2022/11/16 10:59:18;;;;;;;4.57;1.80;;;15.00;48.00;;;;;;5052033;28;20021;-76
2022/11/16 11:01:52;;;;;;;6.22;1.10;;;14.70;48.40;;;;;;5051584;28;20060;-77
2022/11/16 11:04:30;;;;;;;4.82;0.73;;;14.50;49.80;;;;;;5051768;28;20032;-75
2022/11/16 11:06:57;;;;;;;6.32;0.90;;;14.10;50.20;;;;;;5051922;28;20071;-76
2022/11/16 11:09:34;;;;;;;3.35;0.90;;;13.80;51.10;;;;;;5052230;28;20083;-76
2022/11/16 11:15:04;;;;;;;7.32;1.38;;;13.50;53.20;;;;;;5055367;28;20039;-78
2022/11/16 11:17:32;;;;;;;9.60;1.00;;;13.30;53.80;;;;;;5055703;28;20381;-76
2022/11/16 11:20:00;;;;;;;4.80;0.60;;;13.20;53.30;;;;;;5055216;28;20473;-77
2022/11/16 11:22:27;;;;;;;6.28;1.10;;;13.00;53.10;;;;;;5055717;28;20079;-77
2022/11/16 11:24:53;;;;;;;3.25;0.77;;;13.20;53.20;;;;;;5055535;28;20059;-76
2022/11/16 11:27:24;;;;;;;4.20;1.25;;;13.80;51.80;;;;;;5055557;28;20053;-76
2022/11/16 11:29:57;;;;;;;5.63;1.13;;;14.40;49.70;;;;;;5055632;28;20013;-79
2022/11/16 11:32:30;;;;;;;7.03;1.33;;;14.80;48.60;;;;;;5056056;28;20445;-75
2022/11/16 11:34:58;;;;;;;4.93;0.90;;;15.20;47.20;;;;;;5055699;28;20025;-78
2022/11/16 11:37:31;;;;;;;7.35;0.82;;;16.00;45.50;;;;;;5037396;28;20024;-75
2022/11/16 11:40:17;;;;;;;3.75;1.23;;;16.50;43.30;;;;;;5054907;28;20024;-76
2022/11/16 11:42:50;;;;;;;;;;;17.00;41.90;;;;;;5055503;28;20024;-78
2022/11/16 11:45:17;;;;;;;4.80;0.93;;;17.00;42.40;;;;;;5055174;28;19958;-77
2022/11/16 11:47:59;;;;;;;5.15;0.65;;;17.60;40.00;;;;;;5054977;28;20029;-75
2022/11/16 11:50:39;;;;;;;2.67;0.70;;;17.50;39.30;;;;;;5055027;28;20072;-76
2022/11/16 11:53:25;;;;;;;3.38;1.10;;;17.50;39.10;;;;;;5054839;28;20082;-76
2022/11/16 11:55:56;;;;;;;3.25;0.63;;;17.60;38.40;;;;;;5055734;28;20452;-77
2022/11/16 11:58:28;;;;;;;4.10;0.70;;;17.20;38.90;;;;;;5055275;28;20045;-79
2022/11/16 12:01:06;;;;;;;4.28;1.02;;;17.40;39.60;;;;;;5050020;28;20037;-87
2022/11/16 12:04:05;;;;;;;4.93;0.90;;;16.80;39.10;;;;;;5037682;28;20382;-82
2022/11/16 12:06:45;;;;;;;4.22;0.90;;;16.50;40.90;;;;;;5035938;28;20478;-84
2022/11/16 12:09:24;;;;;;;5.88;1.15;;;15.70;42.90;;;;;;5055305;28;20047;-85
2022/11/16 12:12:28;;;;;;;5.68;1.10;;;15.60;43.60;;;;;;5055616;28;20116;-83
2022/11/16 12:15:21;;;;;;;4.80;1.05;;;15.20;45.30;;;;;;5060349;28;20029;-82
2022/11/16 12:18:16;;;;;;;4.35;0.88;;;14.90;46.30;;;;;;5055775;28;20067;-90
2022/11/16 12:20:54;;;;;;;5.35;1.10;;;15.20;46.40;;;;;;5055618;28;20029;-87
2022/11/16 12:23:41;;;;;;;1.77;0.50;;;15.20;45.80;;;;;;5056101;28;20017;-90
2022/11/16 12:26:12;;;;;;;4.00;1.10;;;15.50;46.00;;;;;;5038479;28;20025;-88
2022/11/16 12:28:50;;;;;;;6.38;1.27;;;15.80;45.10;;;;;;5056960;28;20021;-86
2022/11/16 12:31:26;;;;;;;5.68;2.40;;;15.50;46.00;;;;;;5056429;28;20025;-91
2022/11/16 12:34:03;;;;;;;4.55;1.48;;;16.30;44.60;;;;;;5056508;28;20056;-88
2022/11/16 12:36:43;;;;;;;4.72;0.80;;;18.00;40.50;;;;;;5055582;28;20017;-85
2022/11/16 12:39:23;;;;;;;3.17;0.63;;;19.70;36.90;;;;;;5056361;28;20155;-89
2022/11/16 12:41:49;;;;;;;6.32;0.60;;;21.70;32.80;;;;;;5056989;28;20396;-90
2022/11/16 12:44:43;;;;;;;5.28;1.30;;;23.30;29.40;;;;;;5039216;28;20110;-87
2022/11/16 12:47:31;;;;;;;2.15;0.88;;;24.80;27.10;;;;;;5055006;28;20028;-87
2022/11/16 12:50:02;;;;;;;4.22;1.05;;;27.60;22.40;;;;;;5059077;28;20032;-81
2022/11/16 12:53:09;;;;;;;3.17;0.70;;;28.80;19.70;;;;;;5069440;28;20020;-83
2022/11/16 12:55:54;;;;;;;3.22;0.82;;;30.70;16.50;;;;;;4961912;28;20400;-81
2022/11/16 12:58:23;;;;;;;;;;;31.80;15.60;;;;;;4961189;29;20047;-86
2022/11/16 13:01:03;;;;;;;2.35;0.88;;;33.30;14.00;;;;;;5007238;28;19913;-83
2022/11/16 13:03:45;;;;;;;4.45;1.30;;;32.80;13.70;;;;;;5040363;28;20060;-84
2022/11/16 13:06:18;;;;;;;2.70;1.02;;;32.50;14.30;;;;;;5043714;28;20022;-88
2022/11/16 13:09:11;;;;;;;6.97;1.20;;;33.00;13.90;;;;;;5040559;28;20021;-87
2022/11/16 13:11:50;;;;;;;4.43;1.20;;;33.20;12.40;;;;;;5036635;28;20095;-79
2022/11/16 13:14:19;;;;;;;2.78;0.90;;;33.20;12.20;;;;;;5034667;28;20041;-78
2022/11/16 13:16:46;;;;;;;6.18;1.10;;;34.30;12.60;;;;;;5035208;28;20091;-77
2022/11/16 13:19:14;;;;;;;2.83;0.90;;;35.30;10.90;;;;;;5034353;28;20034;-78
2022/11/16 13:21:46;;;;;;;3.22;0.98;;;35.00;10.50;;;;;;5033903;28;20033;-75
2022/11/16 13:24:29;;;;;;;4.80;1.23;;;32.80;11.60;;;;;;5034017;28;20047;-77
2022/11/16 13:27:11;;;;;;;3.05;0.95;;;32.80;12.40;;;;;;5034102;28;20025;-82
2022/11/16 13:29:56;;;;;;;4.57;1.40;;;32.40;12.60;;;;;;5033804;28;20470;-78
2022/11/16 13:32:29;;;;;;;5.10;1.58;;;32.70;13.00;;;;;;5015760;28;20104;-78
2022/11/16 13:34:56;;;;;;;3.38;0.90;;;34.10;11.90;;;;;;5033634;28;20036;-81
2022/11/16 13:37:41;;;;;;;3.03;0.80;;;32.40;11.30;;;;;;5033552;28;20492;-78
2022/11/16 13:40:07;;;;;;;3.80;0.90;;;31.30;13.20;;;;;;5033365;28;20029;-77
2022/11/16 13:42:56;;;;;;;4.78;1.00;;;31.00;13.80;;;;;;5033374;28;20029;-77
2022/11/16 13:45:22;;;;;;;3.55;0.80;;;30.00;14.30;;;;;;5033355;28;20368;-77
2022/11/16 13:47:53;;;;;;;5.05;1.05;;;29.00;16.00;;;;;;5015531;28;20036;-76
2022/11/16 13:50:30;;;;;;;3.67;0.63;;;30.10;15.40;;;;;;5033454;28;20502;-79
2022/11/16 13:53:05;;;;;;;3.35;0.80;;;31.10;14.70;;;;;;5033541;28;20397;-81
2022/11/16 13:55:34;;;;;;;2.13;0.93;;;32.50;13.30;;;;;;5033275;28;20427;-77